sensor_id;sensor_type;location;lat;lon;timestamp;P1;durP1;ratioP1;P2;durP2;ratioP2
11839;SDS011;5979;50.800;4.904;2023-08-21T00:00:00;5.18;;;2.70;;
11839;SDS011;5979;50.800;4.904;2023-08-21T00:02:26;4.90;;;2.20;;
11839;SDS011;5979;50.800;4.904;2023-08-21T00:04:53;3.92;;;2.20;;
11839;SDS011;5979;50.800;4.904;2023-08-21T00:07:19;5.07;;;2.30;;
11839;SDS011;5979;50.800;4.904;2023-08-21T00:09:45;2.88;;;1.67;;
11839;SDS011;5979;50.800;4.904;2023-08-21T00:12:10;2.65;;;2.10;;
11839;SDS011;5979;50.800;4.904;2023-08-21T00:14:36;4.22;;;2.00;;
11839;SDS011;5979;50.800;4.904;2023-08-21T00:17:02;3.65;;;2.35;;
11839;SDS011;5979;50.800;4.904;2023-08-21T00:19:32;5.55;;;2.33;;
11839;SDS011;5979;50.800;4.904;2023-08-21T00:21:57;2.47;;;2.30;;
11839;SDS011;5979;50.800;4.904;2023-08-21T00:24:23;3.90;;;2.20;;
11839;SDS011;5979;50.800;4.904;2023-08-21T00:26:49;3.50;;;2.15;;
11839;SDS011;5979;50.800;4.904;2023-08-21T00:29:14;2.67;;;2.22;;
11839;SDS011;5979;50.800;4.904;2023-08-21T00:31:40;2.35;;;2.13;;
11839;SDS011;5979;50.800;4.904;2023-08-21T00:34:06;5.65;;;2.17;;
11839;SDS011;5979;50.800;4.904;2023-08-21T00:36:31;5.78;;;2.50;;
11839;SDS011;5979;50.800;4.904;2023-08-21T00:38:57;3.10;;;2.10;;
11839;SDS011;5979;50.800;4.904;2023-08-21T00:41:23;4.82;;;2.15;;
11839;SDS011;5979;50.800;4.904;2023-08-21T00:43:49;3.13;;;1.95;;
11839;SDS011;5979;50.800;4.904;2023-08-21T00:46:14;3.08;;;2.17;;
11839;SDS011;5979;50.800;4.904;2023-08-21T00:48:42;3.80;;;2.33;;
11839;SDS011;5979;50.800;4.904;2023-08-21T00:51:09;2.50;;;2.30;;
11839;SDS011;5979;50.800;4.904;2023-08-21T00:53:37;3.45;;;2.00;;
11839;SDS011;5979;50.800;4.904;2023-08-21T00:56:03;2.67;;;1.98;;
11839;SDS011;5979;50.800;4.904;2023-08-21T00:58:29;3.30;;;2.10;;
11839;SDS011;5979;50.800;4.904;2023-08-21T01:00:55;3.90;;;2.67;;
11839;SDS011;5979;50.800;4.904;2023-08-21T01:03:21;4.97;;;2.30;;
11839;SDS011;5979;50.800;4.904;2023-08-21T01:05:46;4.45;;;2.45;;
11839;SDS011;5979;50.800;4.904;2023-08-21T01:08:19;2.25;;;2.00;;
11839;SDS011;5979;50.800;4.904;2023-08-21T01:10:59;4.10;;;2.70;;
11839;SDS011;5979;50.800;4.904;2023-08-21T01:13:54;3.67;;;2.38;;
11839;SDS011;5979;50.800;4.904;2023-08-21T01:16:24;2.47;;;2.28;;
11839;SDS011;5979;50.800;4.904;2023-08-21T01:18:50;3.15;;;2.42;;
11839;SDS011;5979;50.800;4.904;2023-08-21T01:21:19;2.72;;;2.42;;
11839;SDS011;5979;50.800;4.904;2023-08-21T01:23:45;3.58;;;2.42;;
11839;SDS011;5979;50.800;4.904;2023-08-21T01:26:10;4.75;;;2.33;;
11839;SDS011;5979;50.800;4.904;2023-08-21T01:28:36;5.13;;;2.28;;
11839;SDS011;5979;50.800;4.904;2023-08-21T01:31:15;2.55;;;2.33;;
11839;SDS011;5979;50.800;4.904;2023-08-21T01:33:54;4.47;;;2.40;;
11839;SDS011;5979;50.800;4.904;2023-08-21T01:36:22;3.47;;;2.00;;
11839;SDS011;5979;50.800;4.904;2023-08-21T01:38:49;3.55;;;2.30;;
11839;SDS011;5979;50.800;4.904;2023-08-21T01:41:15;3.03;;;2.25;;
11839;SDS011;5979;50.800;4.904;2023-08-21T01:43:41;5.47;;;2.40;;
11839;SDS011;5979;50.800;4.904;2023-08-21T01:46:06;2.60;;;2.38;;
11839;SDS011;5979;50.800;4.904;2023-08-21T01:48:32;7.00;;;2.70;;
11839;SDS011;5979;50.800;4.904;2023-08-21T01:51:00;3.92;;;2.20;;
11839;SDS011;5979;50.800;4.904;2023-08-21T01:53:27;4.07;;;2.25;;
11839;SDS011;5979;50.800;4.904;2023-08-21T01:55:53;2.35;;;1.88;;
11839;SDS011;5979;50.800;4.904;2023-08-21T01:58:18;2.50;;;2.20;;
11839;SDS011;5979;50.800;4.904;2023-08-21T02:00:47;5.88;;;2.53;;
11839;SDS011;5979;50.800;4.904;2023-08-21T02:03:13;4.05;;;2.45;;
11839;SDS011;5979;50.800;4.904;2023-08-21T02:05:39;4.75;;;2.67;;
11839;SDS011;5979;50.800;4.904;2023-08-21T02:08:06;4.28;;;2.60;;
11839;SDS011;5979;50.800;4.904;2023-08-21T02:10:34;2.50;;;2.30;;
11839;SDS011;5979;50.800;4.904;2023-08-21T02:13:00;3.00;;;2.45;;
11839;SDS011;5979;50.800;4.904;2023-08-21T02:15:25;4.78;;;2.13;;
11839;SDS011;5979;50.800;4.904;2023-08-21T02:17:51;2.15;;;1.95;;
11839;SDS011;5979;50.800;4.904;2023-08-21T02:20:16;5.03;;;2.88;;
11839;SDS011;5979;50.800;4.904;2023-08-21T02:22:42;3.58;;;2.35;;
11839;SDS011;5979;50.800;4.904;2023-08-21T02:25:08;7.65;;;3.28;;
11839;SDS011;5979;50.800;4.904;2023-08-21T02:27:34;3.67;;;2.67;;
11839;SDS011;5979;50.800;4.904;2023-08-21T02:29:59;5.35;;;2.55;;
11839;SDS011;5979;50.800;4.904;2023-08-21T02:32:25;3.50;;;2.35;;
11839;SDS011;5979;50.800;4.904;2023-08-21T02:34:51;5.13;;;2.60;;
11839;SDS011;5979;50.800;4.904;2023-08-21T02:37:16;4.43;;;2.28;;
11839;SDS011;5979;50.800;4.904;2023-08-21T02:39:42;3.63;;;2.33;;
11839;SDS011;5979;50.800;4.904;2023-08-21T02:42:08;2.58;;;2.28;;
11839;SDS011;5979;50.800;4.904;2023-08-21T02:44:33;3.55;;;2.40;;
11839;SDS011;5979;50.800;4.904;2023-08-21T02:46:59;2.17;;;1.83;;
11839;SDS011;5979;50.800;4.904;2023-08-21T02:49:24;2.15;;;1.95;;
11839;SDS011;5979;50.800;4.904;2023-08-21T02:51:50;3.30;;;2.25;;
11839;SDS011;5979;50.800;4.904;2023-08-21T02:54:16;2.38;;;2.17;;
11839;SDS011;5979;50.800;4.904;2023-08-21T02:56:41;3.05;;;2.17;;
11839;SDS011;5979;50.800;4.904;2023-08-21T02:59:07;2.92;;;2.30;;
11839;SDS011;5979;50.800;4.904;2023-08-21T03:01:33;3.20;;;2.20;;
11839;SDS011;5979;50.800;4.904;2023-08-21T03:04:00;2.10;;;2.00;;
11839;SDS011;5979;50.800;4.904;2023-08-21T03:06:26;3.17;;;2.03;;
11839;SDS011;5979;50.800;4.904;2023-08-21T03:08:51;3.20;;;2.50;;
11839;SDS011;5979;50.800;4.904;2023-08-21T03:11:17;2.80;;;2.60;;
11839;SDS011;5979;50.800;4.904;2023-08-21T03:13:42;3.38;;;2.50;;
11839;SDS011;5979;50.800;4.904;2023-08-21T03:16:08;2.47;;;2.30;;
11839;SDS011;5979;50.800;4.904;2023-08-21T03:18:54;3.90;;;2.88;;
11839;SDS011;5979;50.800;4.904;2023-08-21T03:21:23;2.60;;;2.38;;
11839;SDS011;5979;50.800;4.904;2023-08-21T03:23:50;3.92;;;2.25;;
11839;SDS011;5979;50.800;4.904;2023-08-21T03:26:17;4.60;;;2.70;;
11839;SDS011;5979;50.800;4.904;2023-08-21T03:28:42;2.47;;;2.28;;
11839;SDS011;5979;50.800;4.904;2023-08-21T03:31:08;2.17;;;2.08;;
11839;SDS011;5979;50.800;4.904;2023-08-21T03:33:34;2.33;;;2.00;;
11839;SDS011;5979;50.800;4.904;2023-08-21T03:35:59;2.28;;;2.08;;
11839;SDS011;5979;50.800;4.904;2023-08-21T03:38:25;2.53;;;2.33;;
11839;SDS011;5979;50.800;4.904;2023-08-21T03:40:50;3.10;;;2.20;;
11839;SDS011;5979;50.800;4.904;2023-08-21T03:43:16;2.83;;;2.50;;
11839;SDS011;5979;50.800;4.904;2023-08-21T03:45:42;3.55;;;2.38;;
11839;SDS011;5979;50.800;4.904;2023-08-21T03:48:07;2.92;;;2.58;;
11839;SDS011;5979;50.800;4.904;2023-08-21T03:50:33;3.28;;;2.53;;
11839;SDS011;5979;50.800;4.904;2023-08-21T03:52:59;5.20;;;2.40;;
11839;SDS011;5979;50.800;4.904;2023-08-21T03:55:24;2.83;;;2.28;;
11839;SDS011;5979;50.800;4.904;2023-08-21T03:57:50;2.30;;;2.10;;
11839;SDS011;5979;50.800;4.904;2023-08-21T04:00:15;3.75;;;2.45;;
11839;SDS011;5979;50.800;4.904;2023-08-21T04:02:41;3.58;;;2.10;;
11839;SDS011;5979;50.800;4.904;2023-08-21T04:05:07;2.58;;;2.33;;
11839;SDS011;5979;50.800;4.904;2023-08-21T04:07:33;7.93;;;2.67;;
11839;SDS011;5979;50.800;4.904;2023-08-21T04:09:58;3.15;;;2.35;;
11839;SDS011;5979;50.800;4.904;2023-08-21T04:12:24;3.75;;;2.28;;
11839;SDS011;5979;50.800;4.904;2023-08-21T04:14:50;4.20;;;2.40;;
11839;SDS011;5979;50.800;4.904;2023-08-21T04:17:19;3.03;;;2.05;;
11839;SDS011;5979;50.800;4.904;2023-08-21T04:19:48;2.92;;;2.10;;
11839;SDS011;5979;50.800;4.904;2023-08-21T04:22:13;4.05;;;2.25;;
11839;SDS011;5979;50.800;4.904;2023-08-21T04:24:40;2.78;;;2.28;;
11839;SDS011;5979;50.800;4.904;2023-08-21T04:27:06;3.63;;;2.40;;
11839;SDS011;5979;50.800;4.904;2023-08-21T04:29:32;3.60;;;2.20;;
11839;SDS011;5979;50.800;4.904;2023-08-21T04:31:57;2.13;;;2.00;;
11839;SDS011;5979;50.800;4.904;2023-08-21T04:34:23;2.50;;;2.30;;
11839;SDS011;5979;50.800;4.904;2023-08-21T04:36:49;3.05;;;2.30;;
11839;SDS011;5979;50.800;4.904;2023-08-21T04:39:14;3.65;;;2.17;;
11839;SDS011;5979;50.800;4.904;2023-08-21T04:41:41;5.47;;;2.75;;
11839;SDS011;5979;50.800;4.904;2023-08-21T04:44:07;3.30;;;2.67;;
11839;SDS011;5979;50.800;4.904;2023-08-21T04:46:32;3.90;;;3.00;;
11839;SDS011;5979;50.800;4.904;2023-08-21T04:48:58;6.07;;;3.30;;
11839;SDS011;5979;50.800;4.904;2023-08-21T04:51:24;5.25;;;2.75;;
11839;SDS011;5979;50.800;4.904;2023-08-21T04:53:49;3.78;;;2.88;;
11839;SDS011;5979;50.800;4.904;2023-08-21T04:56:15;4.75;;;2.78;;
11839;SDS011;5979;50.800;4.904;2023-08-21T04:58:41;5.70;;;3.35;;
11839;SDS011;5979;50.800;4.904;2023-08-21T05:01:06;3.67;;;3.25;;
11839;SDS011;5979;50.800;4.904;2023-08-21T05:03:32;5.13;;;3.20;;
11839;SDS011;5979;50.800;4.904;2023-08-21T05:05:58;5.25;;;3.10;;
11839;SDS011;5979;50.800;4.904;2023-08-21T05:08:24;7.15;;;3.40;;
11839;SDS011;5979;50.800;4.904;2023-08-21T05:10:57;3.75;;;3.10;;
11839;SDS011;5979;50.800;4.904;2023-08-21T05:13:24;5.45;;;2.60;;
11839;SDS011;5979;50.800;4.904;2023-08-21T05:15:54;5.43;;;3.25;;
11839;SDS011;5979;50.800;4.904;2023-08-21T05:18:23;6.03;;;2.70;;
11839;SDS011;5979;50.800;4.904;2023-08-21T05:20:49;6.20;;;3.25;;
11839;SDS011;5979;50.800;4.904;2023-08-21T05:23:15;3.60;;;3.08;;
11839;SDS011;5979;50.800;4.904;2023-08-21T05:25:42;4.53;;;3.08;;
11839;SDS011;5979;50.800;4.904;2023-08-21T05:28:09;6.50;;;3.20;;
11839;SDS011;5979;50.800;4.904;2023-08-21T05:30:35;4.97;;;3.03;;
11839;SDS011;5979;50.800;4.904;2023-08-21T05:33:01;4.80;;;2.75;;
11839;SDS011;5979;50.800;4.904;2023-08-21T05:35:27;5.30;;;2.72;;
11839;SDS011;5979;50.800;4.904;2023-08-21T05:37:53;5.72;;;2.60;;
11839;SDS011;5979;50.800;4.904;2023-08-21T05:40:19;3.28;;;2.60;;
11839;SDS011;5979;50.800;4.904;2023-08-21T05:42:44;4.18;;;2.80;;
11839;SDS011;5979;50.800;4.904;2023-08-21T05:45:10;6.05;;;2.85;;
11839;SDS011;5979;50.800;4.904;2023-08-21T05:47:36;7.95;;;3.00;;
11839;SDS011;5979;50.800;4.904;2023-08-21T05:50:02;7.25;;;3.35;;
11839;SDS011;5979;50.800;4.904;2023-08-21T05:52:28;4.55;;;2.60;;
11839;SDS011;5979;50.800;4.904;2023-08-21T05:54:54;4.32;;;2.80;;
11839;SDS011;5979;50.800;4.904;2023-08-21T05:57:19;5.20;;;2.90;;
11839;SDS011;5979;50.800;4.904;2023-08-21T05:59:46;3.95;;;3.10;;
11839;SDS011;5979;50.800;4.904;2023-08-21T06:02:12;4.15;;;2.95;;
11839;SDS011;5979;50.800;4.904;2023-08-21T06:04:41;5.22;;;3.03;;
11839;SDS011;5979;50.800;4.904;2023-08-21T06:07:08;5.45;;;3.10;;
11839;SDS011;5979;50.800;4.904;2023-08-21T06:09:34;4.68;;;2.83;;
11839;SDS011;5979;50.800;4.904;2023-08-21T06:12:00;4.75;;;2.60;;
11839;SDS011;5979;50.800;4.904;2023-08-21T06:14:27;6.07;;;2.75;;
11839;SDS011;5979;50.800;4.904;2023-08-21T06:16:59;4.55;;;3.15;;
11839;SDS011;5979;50.800;4.904;2023-08-21T06:19:26;3.83;;;3.10;;
11839;SDS011;5979;50.800;4.904;2023-08-21T06:21:52;7.47;;;2.90;;
11839;SDS011;5979;50.800;4.904;2023-08-21T06:24:19;6.07;;;2.90;;
11839;SDS011;5979;50.800;4.904;2023-08-21T06:26:44;5.95;;;2.83;;
11839;SDS011;5979;50.800;4.904;2023-08-21T06:29:10;5.43;;;3.08;;
11839;SDS011;5979;50.800;4.904;2023-08-21T06:31:36;7.50;;;4.00;;
11839;SDS011;5979;50.800;4.904;2023-08-21T06:34:01;8.35;;;3.63;;
11839;SDS011;5979;50.800;4.904;2023-08-21T06:36:27;5.93;;;3.22;;
11839;SDS011;5979;50.800;4.904;2023-08-21T06:38:53;4.85;;;3.50;;
11839;SDS011;5979;50.800;4.904;2023-08-21T06:41:18;3.90;;;2.88;;
11839;SDS011;5979;50.800;4.904;2023-08-21T06:43:45;7.03;;;3.10;;
11839;SDS011;5979;50.800;4.904;2023-08-21T06:46:10;5.63;;;3.13;;
11839;SDS011;5979;50.800;4.904;2023-08-21T06:48:37;4.32;;;3.33;;
11839;SDS011;5979;50.800;4.904;2023-08-21T06:51:05;60.92;;;8.88;;
11839;SDS011;5979;50.800;4.904;2023-08-21T06:53:31;83.80;;;8.13;;
11839;SDS011;5979;50.800;4.904;2023-08-21T06:55:57;36.30;;;5.10;;
11839;SDS011;5979;50.800;4.904;2023-08-21T06:58:22;7.60;;;3.88;;
11839;SDS011;5979;50.800;4.904;2023-08-21T07:00:48;6.05;;;4.05;;
11839;SDS011;5979;50.800;4.904;2023-08-21T07:03:14;13.07;;;3.83;;
11839;SDS011;5979;50.800;4.904;2023-08-21T07:05:39;11.65;;;4.07;;
11839;SDS011;5979;50.800;4.904;2023-08-21T07:08:05;5.63;;;3.40;;
11839;SDS011;5979;50.800;4.904;2023-08-21T07:10:37;14.43;;;4.20;;
11839;SDS011;5979;50.800;4.904;2023-08-21T07:13:03;6.15;;;3.10;;
11839;SDS011;5979;50.800;4.904;2023-08-21T07:15:29;6.88;;;3.53;;
11839;SDS011;5979;50.800;4.904;2023-08-21T07:17:55;8.85;;;3.30;;
11839;SDS011;5979;50.800;4.904;2023-08-21T07:20:21;6.38;;;2.80;;
11839;SDS011;5979;50.800;4.904;2023-08-21T07:22:47;4.13;;;3.53;;
11839;SDS011;5979;50.800;4.904;2023-08-21T07:25:12;6.72;;;2.90;;
11839;SDS011;5979;50.800;4.904;2023-08-21T07:27:38;4.30;;;2.95;;
11839;SDS011;5979;50.800;4.904;2023-08-21T07:30:05;5.47;;;3.00;;
11839;SDS011;5979;50.800;4.904;2023-08-21T07:32:31;6.78;;;2.75;;
11839;SDS011;5979;50.800;4.904;2023-08-21T07:34:57;13.57;;;3.05;;
11839;SDS011;5979;50.800;4.904;2023-08-21T07:37:23;5.35;;;2.67;;
11839;SDS011;5979;50.800;4.904;2023-08-21T07:39:48;4.80;;;2.78;;
11839;SDS011;5979;50.800;4.904;2023-08-21T07:42:14;5.07;;;2.72;;
11839;SDS011;5979;50.800;4.904;2023-08-21T07:44:40;5.97;;;2.60;;
11839;SDS011;5979;50.800;4.904;2023-08-21T07:47:06;3.20;;;2.30;;
11839;SDS011;5979;50.800;4.904;2023-08-21T07:49:32;6.43;;;2.90;;
11839;SDS011;5979;50.800;4.904;2023-08-21T07:51:57;5.22;;;2.20;;
11839;SDS011;5979;50.800;4.904;2023-08-21T07:54:23;6.65;;;2.58;;
11839;SDS011;5979;50.800;4.904;2023-08-21T07:56:49;4.38;;;2.65;;
11839;SDS011;5979;50.800;4.904;2023-08-21T07:59:15;3.78;;;2.05;;
11839;SDS011;5979;50.800;4.904;2023-08-21T08:01:41;5.35;;;2.40;;
11839;SDS011;5979;50.800;4.904;2023-08-21T08:04:07;7.13;;;2.53;;
11839;SDS011;5979;50.800;4.904;2023-08-21T08:06:33;3.83;;;2.25;;
11839;SDS011;5979;50.800;4.904;2023-08-21T08:08:59;8.98;;;3.20;;
11839;SDS011;5979;50.800;4.904;2023-08-21T08:11:25;2.53;;;2.08;;
11839;SDS011;5979;50.800;4.904;2023-08-21T08:13:51;4.47;;;2.45;;
11839;SDS011;5979;50.800;4.904;2023-08-21T08:16:16;4.32;;;2.58;;
11839;SDS011;5979;50.800;4.904;2023-08-21T08:18:42;7.38;;;2.10;;
11839;SDS011;5979;50.800;4.904;2023-08-21T08:21:08;7.32;;;2.42;;
11839;SDS011;5979;50.800;4.904;2023-08-21T08:23:35;18.67;;;3.55;;
11839;SDS011;5979;50.800;4.904;2023-08-21T08:26:01;4.65;;;2.13;;
11839;SDS011;5979;50.800;4.904;2023-08-21T08:28:27;3.67;;;2.40;;
11839;SDS011;5979;50.800;4.904;2023-08-21T08:30:53;5.38;;;2.20;;
11839;SDS011;5979;50.800;4.904;2023-08-21T08:33:19;5.80;;;2.30;;
11839;SDS011;5979;50.800;4.904;2023-08-21T08:35:45;2.10;;;1.67;;
11839;SDS011;5979;50.800;4.904;2023-08-21T08:38:11;5.97;;;1.88;;
11839;SDS011;5979;50.800;4.904;2023-08-21T08:40:39;3.47;;;1.65;;
11839;SDS011;5979;50.800;4.904;2023-08-21T08:43:08;5.57;;;2.13;;
11839;SDS011;5979;50.800;4.904;2023-08-21T08:45:35;4.13;;;1.95;;
11839;SDS011;5979;50.800;4.904;2023-08-21T08:48:04;5.13;;;1.73;;
11839;SDS011;5979;50.800;4.904;2023-08-21T08:50:30;4.25;;;1.52;;
11839;SDS011;5979;50.800;4.904;2023-08-21T08:52:57;4.20;;;1.80;;
11839;SDS011;5979;50.800;4.904;2023-08-21T08:55:24;4.45;;;1.83;;
11839;SDS011;5979;50.800;4.904;2023-08-21T08:57:51;3.55;;;1.40;;
11839;SDS011;5979;50.800;4.904;2023-08-21T09:00:20;5.32;;;1.95;;
11839;SDS011;5979;50.800;4.904;2023-08-21T09:02:47;5.07;;;1.90;;
11839;SDS011;5979;50.800;4.904;2023-08-21T09:05:13;4.03;;;1.75;;
11839;SDS011;5979;50.800;4.904;2023-08-21T09:07:39;4.80;;;1.80;;
11839;SDS011;5979;50.800;4.904;2023-08-21T09:10:11;4.28;;;1.95;;
11839;SDS011;5979;50.800;4.904;2023-08-21T09:12:40;3.85;;;1.77;;
11839;SDS011;5979;50.800;4.904;2023-08-21T09:15:09;4.85;;;1.98;;
11839;SDS011;5979;50.800;4.904;2023-08-21T09:17:34;4.25;;;1.95;;
11839;SDS011;5979;50.800;4.904;2023-08-21T09:20:06;3.35;;;1.92;;
11839;SDS011;5979;50.800;4.904;2023-08-21T09:22:33;2.92;;;1.60;;
11839;SDS011;5979;50.800;4.904;2023-08-21T09:24:59;2.95;;;1.60;;
11839;SDS011;5979;50.800;4.904;2023-08-21T09:27:30;4.75;;;1.95;;
11839;SDS011;5979;50.800;4.904;2023-08-21T09:29:57;2.95;;;1.60;;
11839;SDS011;5979;50.800;4.904;2023-08-21T09:32:22;3.92;;;2.08;;
11839;SDS011;5979;50.800;4.904;2023-08-21T09:34:48;2.72;;;1.55;;
11839;SDS011;5979;50.800;4.904;2023-08-21T09:37:16;3.88;;;1.80;;
11839;SDS011;5979;50.800;4.904;2023-08-21T09:39:42;6.53;;;1.85;;
11839;SDS011;5979;50.800;4.904;2023-08-21T09:42:09;1.63;;;1.15;;
11839;SDS011;5979;50.800;4.904;2023-08-21T09:44:38;3.72;;;1.90;;
11839;SDS011;5979;50.800;4.904;2023-08-21T09:47:10;3.10;;;1.55;;
11839;SDS011;5979;50.800;4.904;2023-08-21T09:49:37;2.78;;;2.20;;
11839;SDS011;5979;50.800;4.904;2023-08-21T09:52:05;4.80;;;2.08;;
11839;SDS011;5979;50.800;4.904;2023-08-21T09:54:33;6.72;;;1.95;;
11839;SDS011;5979;50.800;4.904;2023-08-21T09:57:02;3.53;;;1.70;;
11839;SDS011;5979;50.800;4.904;2023-08-21T09:59:29;6.75;;;2.30;;
11839;SDS011;5979;50.800;4.904;2023-08-21T10:02:00;3.53;;;1.60;;
11839;SDS011;5979;50.800;4.904;2023-08-21T10:04:30;6.47;;;1.90;;
11839;SDS011;5979;50.800;4.904;2023-08-21T10:06:57;4.68;;;1.65;;
11839;SDS011;5979;50.800;4.904;2023-08-21T10:09:25;2.83;;;1.55;;
11839;SDS011;5979;50.800;4.904;2023-08-21T10:11:54;3.10;;;1.95;;
11839;SDS011;5979;50.800;4.904;2023-08-21T10:14:21;3.15;;;1.70;;
11839;SDS011;5979;50.800;4.904;2023-08-21T10:16:48;5.40;;;1.77;;
11839;SDS011;5979;50.800;4.904;2023-08-21T10:19:16;2.95;;;1.70;;
11839;SDS011;5979;50.800;4.904;2023-08-21T10:21:45;6.07;;;1.90;;
11839;SDS011;5979;50.800;4.904;2023-08-21T10:24:13;4.50;;;1.60;;
11839;SDS011;5979;50.800;4.904;2023-08-21T10:26:52;2.10;;;1.42;;
11839;SDS011;5979;50.800;4.904;2023-08-21T10:29:17;5.10;;;1.77;;
11839;SDS011;5979;50.800;4.904;2023-08-21T10:31:43;4.35;;;1.80;;
11839;SDS011;5979;50.800;4.904;2023-08-21T10:34:09;2.38;;;1.42;;
11839;SDS011;5979;50.800;4.904;2023-08-21T10:37:21;3.22;;;1.55;;
11839;SDS011;5979;50.800;4.904;2023-08-21T10:39:25;2.08;;;1.75;;
11839;SDS011;5979;50.800;4.904;2023-08-21T10:44:36;3.13;;;1.85;;
11839;SDS011;5979;50.800;4.904;2023-08-21T10:49:47;3.60;;;1.77;;
11839;SDS011;5979;50.800;4.904;2023-08-21T10:52:22;4.15;;;2.28;;
11839;SDS011;5979;50.800;4.904;2023-08-21T10:55:00;3.88;;;1.83;;
11839;SDS011;5979;50.800;4.904;2023-08-21T10:57:28;3.13;;;1.77;;
11839;SDS011;5979;50.800;4.904;2023-08-21T11:02:21;4.07;;;1.70;;
11839;SDS011;5979;50.800;4.904;2023-08-21T11:04:48;1.98;;;1.48;;
11839;SDS011;5979;50.800;4.904;2023-08-21T11:07:14;3.03;;;1.33;;
11839;SDS011;5979;50.800;4.904;2023-08-21T11:09:40;3.75;;;1.55;;
11839;SDS011;5979;50.800;4.904;2023-08-21T11:12:09;3.30;;;1.70;;
11839;SDS011;5979;50.800;4.904;2023-08-21T11:14:37;2.08;;;1.55;;
11839;SDS011;5979;50.800;4.904;2023-08-21T11:17:03;3.17;;;1.88;;
11839;SDS011;5979;50.800;4.904;2023-08-21T11:19:30;4.70;;;1.65;;
11839;SDS011;5979;50.800;4.904;2023-08-21T11:21:56;4.40;;;2.00;;
11839;SDS011;5979;50.800;4.904;2023-08-21T11:24:29;3.45;;;1.60;;
11839;SDS011;5979;50.800;4.904;2023-08-21T11:26:56;3.17;;;1.60;;
11839;SDS011;5979;50.800;4.904;2023-08-21T11:29:21;6.95;;;1.70;;
11839;SDS011;5979;50.800;4.904;2023-08-21T11:31:47;2.85;;;1.77;;
11839;SDS011;5979;50.800;4.904;2023-08-21T11:34:18;3.15;;;1.70;;
11839;SDS011;5979;50.800;4.904;2023-08-21T11:36:44;4.10;;;2.08;;
11839;SDS011;5979;50.800;4.904;2023-08-21T11:39:10;3.65;;;1.90;;
11839;SDS011;5979;50.800;4.904;2023-08-21T11:41:52;2.10;;;1.75;;
11839;SDS011;5979;50.800;4.904;2023-08-21T11:44:21;7.07;;;2.00;;
11839;SDS011;5979;50.800;4.904;2023-08-21T11:46:47;2.75;;;1.58;;
11839;SDS011;5979;50.800;4.904;2023-08-21T11:49:15;3.90;;;1.63;;
11839;SDS011;5979;50.800;4.904;2023-08-21T11:51:41;2.75;;;1.48;;
11839;SDS011;5979;50.800;4.904;2023-08-21T11:54:07;4.40;;;1.67;;
11839;SDS011;5979;50.800;4.904;2023-08-21T11:56:33;4.65;;;1.90;;
11839;SDS011;5979;50.800;4.904;2023-08-21T11:59:01;3.05;;;1.80;;
11839;SDS011;5979;50.800;4.904;2023-08-21T12:01:28;4.30;;;1.98;;
11839;SDS011;5979;50.800;4.904;2023-08-21T12:03:58;3.95;;;1.60;;
11839;SDS011;5979;50.800;4.904;2023-08-21T12:06:24;3.85;;;1.50;;
11839;SDS011;5979;50.800;4.904;2023-08-21T12:08:57;4.65;;;1.73;;
11839;SDS011;5979;50.800;4.904;2023-08-21T12:11:23;4.10;;;1.80;;
11839;SDS011;5979;50.800;4.904;2023-08-21T12:13:49;4.40;;;1.75;;
11839;SDS011;5979;50.800;4.904;2023-08-21T12:16:16;4.20;;;2.00;;
11839;SDS011;5979;50.800;4.904;2023-08-21T12:18:42;3.42;;;1.55;;
11839;SDS011;5979;50.800;4.904;2023-08-21T12:21:08;3.13;;;1.70;;
11839;SDS011;5979;50.800;4.904;2023-08-21T12:23:33;4.30;;;2.00;;
11839;SDS011;5979;50.800;4.904;2023-08-21T12:25:59;2.60;;;1.80;;
11839;SDS011;5979;50.800;4.904;2023-08-21T12:28:25;3.00;;;1.73;;
11839;SDS011;5979;50.800;4.904;2023-08-21T12:30:50;3.63;;;2.00;;
11839;SDS011;5979;50.800;4.904;2023-08-21T12:33:16;1.83;;;1.70;;
11839;SDS011;5979;50.800;4.904;2023-08-21T12:35:42;4.40;;;1.75;;
11839;SDS011;5979;50.800;4.904;2023-08-21T12:38:10;4.97;;;1.75;;
11839;SDS011;5979;50.800;4.904;2023-08-21T12:40:37;3.30;;;1.60;;
11839;SDS011;5979;50.800;4.904;2023-08-21T12:43:03;3.72;;;1.70;;
11839;SDS011;5979;50.800;4.904;2023-08-21T12:45:29;3.97;;;1.75;;
11839;SDS011;5979;50.800;4.904;2023-08-21T12:47:55;4.00;;;1.75;;
11839;SDS011;5979;50.800;4.904;2023-08-21T12:50:21;2.92;;;1.70;;
11839;SDS011;5979;50.800;4.904;2023-08-21T12:52:46;2.30;;;1.73;;
11839;SDS011;5979;50.800;4.904;2023-08-21T12:55:12;4.65;;;1.50;;
11839;SDS011;5979;50.800;4.904;2023-08-21T12:57:38;3.67;;;1.85;;
11839;SDS011;5979;50.800;4.904;2023-08-21T13:00:04;4.75;;;1.90;;
11839;SDS011;5979;50.800;4.904;2023-08-21T13:02:31;3.33;;;1.80;;
11839;SDS011;5979;50.800;4.904;2023-08-21T13:04:56;1.80;;;1.67;;
11839;SDS011;5979;50.800;4.904;2023-08-21T13:07:22;4.90;;;1.98;;
11839;SDS011;5979;50.800;4.904;2023-08-21T13:09:47;7.03;;;2.03;;
11839;SDS011;5979;50.800;4.904;2023-08-21T13:12:13;2.83;;;1.90;;
11839;SDS011;5979;50.800;4.904;2023-08-21T13:14:39;2.00;;;1.63;;
11839;SDS011;5979;50.800;4.904;2023-08-21T13:17:06;4.38;;;1.98;;
11839;SDS011;5979;50.800;4.904;2023-08-21T13:19:31;2.28;;;1.73;;
11839;SDS011;5979;50.800;4.904;2023-08-21T13:21:57;4.82;;;1.80;;
11839;SDS011;5979;50.800;4.904;2023-08-21T13:24:23;5.72;;;2.05;;
11839;SDS011;5979;50.800;4.904;2023-08-21T13:26:48;4.10;;;1.80;;
11839;SDS011;5979;50.800;4.904;2023-08-21T13:29:14;3.10;;;1.60;;
11839;SDS011;5979;50.800;4.904;2023-08-21T13:31:39;2.80;;;1.65;;
11839;SDS011;5979;50.800;4.904;2023-08-21T13:34:05;2.63;;;1.55;;
11839;SDS011;5979;50.800;4.904;2023-08-21T13:36:31;3.95;;;1.60;;
11839;SDS011;5979;50.800;4.904;2023-08-21T13:38:57;2.55;;;2.00;;
11839;SDS011;5979;50.800;4.904;2023-08-21T13:41:23;3.13;;;2.10;;
11839;SDS011;5979;50.800;4.904;2023-08-21T13:43:48;2.80;;;1.60;;
11839;SDS011;5979;50.800;4.904;2023-08-21T13:46:14;2.42;;;1.70;;
11839;SDS011;5979;50.800;4.904;2023-08-21T13:48:40;4.40;;;1.85;;
11839;SDS011;5979;50.800;4.904;2023-08-21T13:51:06;1.70;;;1.60;;
11839;SDS011;5979;50.800;4.904;2023-08-21T13:53:31;3.22;;;1.75;;
11839;SDS011;5979;50.800;4.904;2023-08-21T13:55:57;2.28;;;2.08;;
11839;SDS011;5979;50.800;4.904;2023-08-21T13:58:23;3.42;;;1.98;;
11839;SDS011;5979;50.800;4.904;2023-08-21T14:00:48;2.30;;;1.63;;
11839;SDS011;5979;50.800;4.904;2023-08-21T14:03:14;3.70;;;1.98;;
11839;SDS011;5979;50.800;4.904;2023-08-21T14:05:40;3.75;;;1.98;;
11839;SDS011;5979;50.800;4.904;2023-08-21T14:08:06;2.88;;;1.80;;
11839;SDS011;5979;50.800;4.904;2023-08-21T14:10:31;3.13;;;1.90;;
11839;SDS011;5979;50.800;4.904;2023-08-21T14:12:57;2.53;;;1.58;;
11839;SDS011;5979;50.800;4.904;2023-08-21T14:15:23;4.40;;;1.80;;
11839;SDS011;5979;50.800;4.904;2023-08-21T14:17:49;3.38;;;1.70;;
11839;SDS011;5979;50.800;4.904;2023-08-21T14:20:15;1.80;;;1.70;;
11839;SDS011;5979;50.800;4.904;2023-08-21T14:22:41;1.83;;;1.30;;
11839;SDS011;5979;50.800;4.904;2023-08-21T14:25:07;1.88;;;1.50;;
11839;SDS011;5979;50.800;4.904;2023-08-21T14:27:33;1.75;;;1.60;;
11839;SDS011;5979;50.800;4.904;2023-08-21T14:29:58;1.98;;;1.85;;
11839;SDS011;5979;50.800;4.904;2023-08-21T14:32:24;4.65;;;1.50;;
11839;SDS011;5979;50.800;4.904;2023-08-21T14:34:50;2.50;;;1.73;;
11839;SDS011;5979;50.800;4.904;2023-08-21T14:37:18;3.28;;;1.67;;
11839;SDS011;5979;50.800;4.904;2023-08-21T14:39:43;2.83;;;1.85;;
11839;SDS011;5979;50.800;4.904;2023-08-21T14:42:09;2.55;;;1.80;;
11839;SDS011;5979;50.800;4.904;2023-08-21T14:44:36;2.92;;;1.90;;
11839;SDS011;5979;50.800;4.904;2023-08-21T14:47:02;3.63;;;2.28;;
11839;SDS011;5979;50.800;4.904;2023-08-21T14:49:29;1.60;;;1.50;;
11839;SDS011;5979;50.800;4.904;2023-08-21T14:51:55;3.45;;;1.70;;
11839;SDS011;5979;50.800;4.904;2023-08-21T14:54:20;1.85;;;1.73;;
11839;SDS011;5979;50.800;4.904;2023-08-21T14:56:46;3.42;;;1.77;;
11839;SDS011;5979;50.800;4.904;2023-08-21T14:59:13;1.92;;;1.38;;
11839;SDS011;5979;50.800;4.904;2023-08-21T15:01:39;1.58;;;1.48;;
11839;SDS011;5979;50.800;4.904;2023-08-21T15:04:06;3.53;;;1.73;;